sensor_id;sensor_type;location;lat;lon;timestamp;P1;durP1;ratioP1;P2;durP2;ratioP2
37903;SDS011;23738;50.422;18.758;2023-09-08T00:02:03;10.30;;;8.90;;
37903;SDS011;23738;50.422;18.758;2023-09-08T00:04:32;11.30;;;8.80;;
37903;SDS011;23738;50.422;18.758;2023-09-08T00:07:02;10.90;;;9.80;;
37903;SDS011;23738;50.422;18.758;2023-09-08T00:09:32;11.10;;;10.10;;
37903;SDS011;23738;50.422;18.758;2023-09-08T00:12:01;10.90;;;9.40;;
37903;SDS011;23738;50.422;18.758;2023-09-08T00:14:31;12.80;;;11.50;;
37903;SDS011;23738;50.422;18.758;2023-09-08T00:17:00;10.30;;;9.30;;
37903;SDS011;23738;50.422;18.758;2023-09-08T00:19:30;13.10;;;9.60;;
37903;SDS011;23738;50.422;18.758;2023-09-08T00:22:00;11.90;;;9.10;;
37903;SDS011;23738;50.422;18.758;2023-09-08T00:24:29;10.60;;;9.60;;
37903;SDS011;23738;50.422;18.758;2023-09-08T00:26:58;11.80;;;10.60;;
37903;SDS011;23738;50.422;18.758;2023-09-08T00:29:28;12.30;;;11.20;;
37903;SDS011;23738;50.422;18.758;2023-09-08T00:31:57;12.40;;;10.80;;
37903;SDS011;23738;50.422;18.758;2023-09-08T00:34:26;12.00;;;9.60;;
37903;SDS011;23738;50.422;18.758;2023-09-08T00:36:56;9.70;;;8.60;;
37903;SDS011;23738;50.422;18.758;2023-09-08T00:39:27;13.80;;;8.80;;
37903;SDS011;23738;50.422;18.758;2023-09-08T00:41:56;12.30;;;10.00;;
37903;SDS011;23738;50.422;18.758;2023-09-08T00:44:25;13.30;;;9.70;;
37903;SDS011;23738;50.422;18.758;2023-09-08T00:46:54;12.00;;;10.30;;
37903;SDS011;23738;50.422;18.758;2023-09-08T00:49:24;12.30;;;10.90;;
37903;SDS011;23738;50.422;18.758;2023-09-08T00:51:55;11.00;;;9.80;;
37903;SDS011;23738;50.422;18.758;2023-09-08T00:54:24;9.30;;;8.40;;
37903;SDS011;23738;50.422;18.758;2023-09-08T00:56:54;10.50;;;9.20;;
37903;SDS011;23738;50.422;18.758;2023-09-08T00:59:25;12.30;;;10.10;;
37903;SDS011;23738;50.422;18.758;2023-09-08T01:01:55;12.70;;;10.50;;
37903;SDS011;23738;50.422;18.758;2023-09-08T01:04:24;12.80;;;11.60;;
37903;SDS011;23738;50.422;18.758;2023-09-08T01:06:53;13.30;;;12.00;;
37903;SDS011;23738;50.422;18.758;2023-09-08T01:09:23;12.00;;;10.40;;
37903;SDS011;23738;50.422;18.758;2023-09-08T01:11:53;11.20;;;10.10;;
37903;SDS011;23738;50.422;18.758;2023-09-08T01:14:28;11.90;;;9.90;;
37903;SDS011;23738;50.422;18.758;2023-09-08T01:16:58;11.30;;;10.20;;
37903;SDS011;23738;50.422;18.758;2023-09-08T01:19:27;12.10;;;11.00;;
37903;SDS011;23738;50.422;18.758;2023-09-08T01:22:07;13.30;;;11.20;;
37903;SDS011;23738;50.422;18.758;2023-09-08T01:25:07;13.50;;;12.10;;
37903;SDS011;23738;50.422;18.758;2023-09-08T01:27:47;11.80;;;10.30;;
37903;SDS011;23738;50.422;18.758;2023-09-08T01:30:18;11.50;;;9.90;;
37903;SDS011;23738;50.422;18.758;2023-09-08T01:32:49;12.10;;;10.40;;
37903;SDS011;23738;50.422;18.758;2023-09-08T01:35:20;12.30;;;11.10;;
37903;SDS011;23738;50.422;18.758;2023-09-08T01:37:51;13.20;;;11.50;;
37903;SDS011;23738;50.422;18.758;2023-09-08T01:40:20;12.30;;;11.20;;
37903;SDS011;23738;50.422;18.758;2023-09-08T01:42:50;14.80;;;12.10;;
37903;SDS011;23738;50.422;18.758;2023-09-08T01:45:19;12.60;;;10.00;;
37903;SDS011;23738;50.422;18.758;2023-09-08T01:47:49;10.50;;;9.40;;
37903;SDS011;23738;50.422;18.758;2023-09-08T01:50:18;10.00;;;9.10;;
37903;SDS011;23738;50.422;18.758;2023-09-08T01:52:48;12.80;;;10.60;;
37903;SDS011;23738;50.422;18.758;2023-09-08T01:55:18;13.60;;;10.80;;
37903;SDS011;23738;50.422;18.758;2023-09-08T01:57:48;12.30;;;11.10;;
37903;SDS011;23738;50.422;18.758;2023-09-08T02:00:17;11.70;;;10.60;;
37903;SDS011;23738;50.422;18.758;2023-09-08T02:02:47;10.10;;;9.10;;
37903;SDS011;23738;50.422;18.758;2023-09-08T02:05:16;16.10;;;9.60;;
37903;SDS011;23738;50.422;18.758;2023-09-08T02:07:46;10.70;;;9.70;;
37903;SDS011;23738;50.422;18.758;2023-09-08T02:10:16;10.70;;;9.80;;
37903;SDS011;23738;50.422;18.758;2023-09-08T02:12:47;11.80;;;10.60;;
37903;SDS011;23738;50.422;18.758;2023-09-08T02:15:16;11.60;;;10.60;;
37903;SDS011;23738;50.422;18.758;2023-09-08T02:17:46;14.30;;;11.50;;
37903;SDS011;23738;50.422;18.758;2023-09-08T02:20:16;11.90;;;10.30;;
37903;SDS011;23738;50.422;18.758;2023-09-08T02:22:46;11.00;;;9.90;;
37903;SDS011;23738;50.422;18.758;2023-09-08T02:25:17;13.30;;;10.00;;
37903;SDS011;23738;50.422;18.758;2023-09-08T02:27:46;16.60;;;11.10;;
37903;SDS011;23738;50.422;18.758;2023-09-08T02:30:16;19.30;;;13.30;;
37903;SDS011;23738;50.422;18.758;2023-09-08T02:32:46;14.40;;;11.50;;
37903;SDS011;23738;50.422;18.758;2023-09-08T02:35:15;14.20;;;12.00;;
37903;SDS011;23738;50.422;18.758;2023-09-08T02:37:45;11.50;;;10.10;;
37903;SDS011;23738;50.422;18.758;2023-09-08T02:40:14;16.30;;;9.70;;
37903;SDS011;23738;50.422;18.758;2023-09-08T02:42:45;11.20;;;8.90;;
37903;SDS011;23738;50.422;18.758;2023-09-08T02:45:15;11.80;;;10.60;;
37903;SDS011;23738;50.422;18.758;2023-09-08T02:47:44;13.70;;;10.80;;
37903;SDS011;23738;50.422;18.758;2023-09-08T02:50:14;12.50;;;11.30;;
37903;SDS011;23738;50.422;18.758;2023-09-08T02:52:44;12.80;;;11.00;;
37903;SDS011;23738;50.422;18.758;2023-09-08T02:55:13;11.60;;;9.10;;
37903;SDS011;23738;50.422;18.758;2023-09-08T02:57:43;10.40;;;9.30;;
37903;SDS011;23738;50.422;18.758;2023-09-08T03:00:13;9.40;;;8.50;;
37903;SDS011;23738;50.422;18.758;2023-09-08T03:02:43;10.60;;;9.50;;
37903;SDS011;23738;50.422;18.758;2023-09-08T03:05:12;11.60;;;10.40;;
37903;SDS011;23738;50.422;18.758;2023-09-08T03:07:42;12.90;;;10.40;;
37903;SDS011;23738;50.422;18.758;2023-09-08T03:10:15;12.60;;;10.60;;
37903;SDS011;23738;50.422;18.758;2023-09-08T03:12:45;10.90;;;8.60;;
37903;SDS011;23738;50.422;18.758;2023-09-08T03:15:14;11.20;;;8.70;;
37903;SDS011;23738;50.422;18.758;2023-09-08T03:17:44;9.90;;;9.00;;
37903;SDS011;23738;50.422;18.758;2023-09-08T03:20:13;12.50;;;10.80;;
37903;SDS011;23738;50.422;18.758;2023-09-08T03:22:42;13.70;;;11.80;;
37903;SDS011;23738;50.422;18.758;2023-09-08T03:25:12;12.70;;;10.50;;
37903;SDS011;23738;50.422;18.758;2023-09-08T03:27:42;13.40;;;10.00;;
37903;SDS011;23738;50.422;18.758;2023-09-08T03:30:12;9.90;;;8.90;;
37903;SDS011;23738;50.422;18.758;2023-09-08T03:32:42;12.10;;;9.20;;
37903;SDS011;23738;50.422;18.758;2023-09-08T03:35:11;13.30;;;10.80;;
37903;SDS011;23738;50.422;18.758;2023-09-08T03:37:40;18.70;;;10.80;;
37903;SDS011;23738;50.422;18.758;2023-09-08T03:40:10;16.20;;;11.10;;
37903;SDS011;23738;50.422;18.758;2023-09-08T03:42:40;13.30;;;11.20;;
37903;SDS011;23738;50.422;18.758;2023-09-08T03:45:09;10.70;;;8.80;;
37903;SDS011;23738;50.422;18.758;2023-09-08T03:47:39;10.40;;;8.00;;
37903;SDS011;23738;50.422;18.758;2023-09-08T03:50:09;11.60;;;9.10;;
37903;SDS011;23738;50.422;18.758;2023-09-08T03:52:38;11.40;;;10.20;;
37903;SDS011;23738;50.422;18.758;2023-09-08T03:55:07;10.90;;;9.80;;
37903;SDS011;23738;50.422;18.758;2023-09-08T03:57:37;11.10;;;10.10;;
37903;SDS011;23738;50.422;18.758;2023-09-08T04:00:08;13.30;;;9.40;;
37903;SDS011;23738;50.422;18.758;2023-09-08T04:02:38;12.30;;;9.40;;
37903;SDS011;23738;50.422;18.758;2023-09-08T04:05:08;11.30;;;9.70;;
37903;SDS011;23738;50.422;18.758;2023-09-08T04:07:38;10.60;;;9.60;;
37903;SDS011;23738;50.422;18.758;2023-09-08T04:10:08;11.00;;;9.80;;
37903;SDS011;23738;50.422;18.758;2023-09-08T04:12:38;11.70;;;10.50;;
37903;SDS011;23738;50.422;18.758;2023-09-08T04:15:09;14.20;;;11.30;;
37903;SDS011;23738;50.422;18.758;2023-09-08T04:17:38;11.00;;;9.90;;
37903;SDS011;23738;50.422;18.758;2023-09-08T04:20:08;10.30;;;8.60;;
37903;SDS011;23738;50.422;18.758;2023-09-08T04:22:41;11.00;;;9.60;;
37903;SDS011;23738;50.422;18.758;2023-09-08T04:25:11;11.30;;;10.10;;
37903;SDS011;23738;50.422;18.758;2023-09-08T04:27:40;11.70;;;10.30;;
37903;SDS011;23738;50.422;18.758;2023-09-08T04:30:12;12.20;;;11.00;;
37903;SDS011;23738;50.422;18.758;2023-09-08T04:32:42;11.40;;;10.30;;
37903;SDS011;23738;50.422;18.758;2023-09-08T04:35:11;15.50;;;9.80;;
37903;SDS011;23738;50.422;18.758;2023-09-08T04:37:40;11.50;;;9.00;;
37903;SDS011;23738;50.422;18.758;2023-09-08T04:40:10;11.50;;;10.30;;
37903;SDS011;23738;50.422;18.758;2023-09-08T04:42:39;11.30;;;10.20;;
37903;SDS011;23738;50.422;18.758;2023-09-08T04:45:10;14.10;;;11.00;;
37903;SDS011;23738;50.422;18.758;2023-09-08T04:47:40;12.40;;;10.90;;
37903;SDS011;23738;50.422;18.758;2023-09-08T04:50:10;13.00;;;11.70;;
37903;SDS011;23738;50.422;18.758;2023-09-08T04:52:39;11.10;;;10.00;;
37903;SDS011;23738;50.422;18.758;2023-09-08T04:55:09;10.60;;;9.40;;
37903;SDS011;23738;50.422;18.758;2023-09-08T04:57:38;14.90;;;10.00;;
37903;SDS011;23738;50.422;18.758;2023-09-08T05:00:09;12.40;;;11.10;;
37903;SDS011;23738;50.422;18.758;2023-09-08T05:02:40;15.80;;;11.80;;
37903;SDS011;23738;50.422;18.758;2023-09-08T05:05:09;16.20;;;12.80;;
37903;SDS011;23738;50.422;18.758;2023-09-08T05:07:38;16.20;;;11.30;;
37903;SDS011;23738;50.422;18.758;2023-09-08T05:10:08;14.10;;;10.70;;
37903;SDS011;23738;50.422;18.758;2023-09-08T05:12:38;12.80;;;9.90;;
37903;SDS011;23738;50.422;18.758;2023-09-08T05:15:08;15.10;;;11.10;;
37903;SDS011;23738;50.422;18.758;2023-09-08T05:17:41;14.00;;;12.50;;
37903;SDS011;23738;50.422;18.758;2023-09-08T05:20:12;16.80;;;14.30;;
37903;SDS011;23738;50.422;18.758;2023-09-08T05:22:41;13.90;;;11.10;;
37903;SDS011;23738;50.422;18.758;2023-09-08T05:25:11;13.70;;;10.70;;
37903;SDS011;23738;50.422;18.758;2023-09-08T05:27:40;13.00;;;10.80;;
37903;SDS011;23738;50.422;18.758;2023-09-08T05:30:10;13.10;;;11.50;;
37903;SDS011;23738;50.422;18.758;2023-09-08T05:32:40;13.40;;;12.10;;
37903;SDS011;23738;50.422;18.758;2023-09-08T05:35:09;14.80;;;12.50;;
37903;SDS011;23738;50.422;18.758;2023-09-08T05:37:38;12.50;;;11.10;;
37903;SDS011;23738;50.422;18.758;2023-09-08T05:40:08;11.70;;;10.20;;
37903;SDS011;23738;50.422;18.758;2023-09-08T05:42:38;16.10;;;10.90;;
37903;SDS011;23738;50.422;18.758;2023-09-08T05:45:08;13.10;;;10.90;;
37903;SDS011;23738;50.422;18.758;2023-09-08T05:47:38;14.60;;;12.40;;
37903;SDS011;23738;50.422;18.758;2023-09-08T05:50:08;16.00;;;11.90;;
37903;SDS011;23738;50.422;18.758;2023-09-08T05:52:38;17.60;;;12.10;;
37903;SDS011;23738;50.422;18.758;2023-09-08T05:55:07;15.40;;;11.50;;
37903;SDS011;23738;50.422;18.758;2023-09-08T05:57:37;12.50;;;10.70;;
37903;SDS011;23738;50.422;18.758;2023-09-08T06:00:08;16.40;;;11.40;;
37903;SDS011;23738;50.422;18.758;2023-09-08T06:02:38;11.80;;;10.70;;
37903;SDS011;23738;50.422;18.758;2023-09-08T06:05:08;15.30;;;10.50;;
37903;SDS011;23738;50.422;18.758;2023-09-08T06:07:37;15.00;;;11.00;;
37903;SDS011;23738;50.422;18.758;2023-09-08T06:10:08;14.20;;;10.70;;
37903;SDS011;23738;50.422;18.758;2023-09-08T06:12:37;11.80;;;10.00;;
37903;SDS011;23738;50.422;18.758;2023-09-08T06:15:07;11.30;;;10.10;;
37903;SDS011;23738;50.422;18.758;2023-09-08T06:17:37;13.90;;;10.90;;
37903;SDS011;23738;50.422;18.758;2023-09-08T06:20:07;15.80;;;10.40;;
37903;SDS011;23738;50.422;18.758;2023-09-08T06:22:38;18.60;;;10.30;;
37903;SDS011;23738;50.422;18.758;2023-09-08T06:25:08;15.50;;;9.80;;
37903;SDS011;23738;50.422;18.758;2023-09-08T06:27:37;14.50;;;10.80;;
37903;SDS011;23738;50.422;18.758;2023-09-08T06:30:08;14.80;;;9.30;;
37903;SDS011;23738;50.422;18.758;2023-09-08T06:32:40;13.00;;;9.50;;
37903;SDS011;23738;50.422;18.758;2023-09-08T06:35:09;10.30;;;9.30;;
37903;SDS011;23738;50.422;18.758;2023-09-08T06:37:38;14.90;;;9.20;;
37903;SDS011;23738;50.422;18.758;2023-09-08T06:40:08;11.80;;;10.20;;
37903;SDS011;23738;50.422;18.758;2023-09-08T06:42:37;12.30;;;9.60;;
37903;SDS011;23738;50.422;18.758;2023-09-08T06:45:08;16.10;;;8.70;;
37903;SDS011;23738;50.422;18.758;2023-09-08T06:47:38;18.90;;;9.10;;
37903;SDS011;23738;50.422;18.758;2023-09-08T06:50:08;14.00;;;9.20;;
37903;SDS011;23738;50.422;18.758;2023-09-08T06:52:38;10.10;;;8.60;;
37903;SDS011;23738;50.422;18.758;2023-09-08T06:55:07;14.50;;;9.10;;
37903;SDS011;23738;50.422;18.758;2023-09-08T06:57:37;11.70;;;8.50;;
37903;SDS011;23738;50.422;18.758;2023-09-08T07:00:08;15.60;;;9.50;;
37903;SDS011;23738;50.422;18.758;2023-09-08T07:02:39;10.20;;;8.30;;
37903;SDS011;23738;50.422;18.758;2023-09-08T07:05:08;15.50;;;9.20;;
37903;SDS011;23738;50.422;18.758;2023-09-08T07:07:37;12.60;;;9.50;;
37903;SDS011;23738;50.422;18.758;2023-09-08T07:10:08;11.80;;;9.20;;
37903;SDS011;23738;50.422;18.758;2023-09-08T07:12:38;11.30;;;9.30;;
37903;SDS011;23738;50.422;18.758;2023-09-08T07:15:09;15.90;;;9.20;;
37903;SDS011;23738;50.422;18.758;2023-09-08T07:17:38;13.20;;;9.20;;
37903;SDS011;23738;50.422;18.758;2023-09-08T07:20:09;11.10;;;9.30;;
37903;SDS011;23738;50.422;18.758;2023-09-08T07:22:39;14.10;;;9.00;;
37903;SDS011;23738;50.422;18.758;2023-09-08T07:25:08;10.80;;;9.80;;
37903;SDS011;23738;50.422;18.758;2023-09-08T07:27:38;10.80;;;9.30;;
37903;SDS011;23738;50.422;18.758;2023-09-08T07:30:08;11.90;;;10.20;;
37903;SDS011;23738;50.422;18.758;2023-09-08T07:32:38;15.80;;;11.10;;
37903;SDS011;23738;50.422;18.758;2023-09-08T07:35:08;13.80;;;9.90;;
37903;SDS011;23738;50.422;18.758;2023-09-08T07:37:40;9.60;;;8.60;;
37903;SDS011;23738;50.422;18.758;2023-09-08T07:40:11;14.30;;;9.50;;
37903;SDS011;23738;50.422;18.758;2023-09-08T07:42:40;15.00;;;8.90;;
37903;SDS011;23738;50.422;18.758;2023-09-08T07:45:09;9.20;;;8.00;;
37903;SDS011;23738;50.422;18.758;2023-09-08T07:47:39;17.90;;;8.00;;
37903;SDS011;23738;50.422;18.758;2023-09-08T07:50:20;11.10;;;8.60;;
37903;SDS011;23738;50.422;18.758;2023-09-08T07:52:52;11.80;;;8.30;;
37903;SDS011;23738;50.422;18.758;2023-09-08T07:55:22;9.60;;;8.20;;
37903;SDS011;23738;50.422;18.758;2023-09-08T07:57:54;11.40;;;7.80;;
37903;SDS011;23738;50.422;18.758;2023-09-08T08:00:25;12.10;;;8.00;;
37903;SDS011;23738;50.422;18.758;2023-09-08T08:02:55;12.50;;;7.70;;
37903;SDS011;23738;50.422;18.758;2023-09-08T08:05:25;14.00;;;8.20;;
37903;SDS011;23738;50.422;18.758;2023-09-08T08:07:54;13.30;;;7.80;;
37903;SDS011;23738;50.422;18.758;2023-09-08T08:10:23;12.60;;;7.80;;
37903;SDS011;23738;50.422;18.758;2023-09-08T08:12:53;11.80;;;6.70;;
37903;SDS011;23738;50.422;18.758;2023-09-08T08:15:23;13.00;;;7.60;;
37903;SDS011;23738;50.422;18.758;2023-09-08T08:18:04;11.90;;;7.70;;
37903;SDS011;23738;50.422;18.758;2023-09-08T08:20:36;11.60;;;7.30;;
37903;SDS011;23738;50.422;18.758;2023-09-08T08:23:05;9.60;;;7.20;;
37903;SDS011;23738;50.422;18.758;2023-09-08T08:25:35;8.40;;;6.80;;
37903;SDS011;23738;50.422;18.758;2023-09-08T08:28:05;11.90;;;6.10;;
37903;SDS011;23738;50.422;18.758;2023-09-08T08:30:34;9.30;;;6.50;;
37903;SDS011;23738;50.422;18.758;2023-09-08T08:33:04;14.60;;;6.50;;
37903;SDS011;23738;50.422;18.758;2023-09-08T08:35:33;7.60;;;6.20;;
37903;SDS011;23738;50.422;18.758;2023-09-08T08:38:03;7.80;;;6.00;;
37903;SDS011;23738;50.422;18.758;2023-09-08T08:40:32;6.90;;;6.20;;
37903;SDS011;23738;50.422;18.758;2023-09-08T08:43:05;10.20;;;6.00;;
37903;SDS011;23738;50.422;18.758;2023-09-08T08:45:35;13.40;;;5.90;;
37903;SDS011;23738;50.422;18.758;2023-09-08T08:48:06;10.90;;;5.60;;
37903;SDS011;23738;50.422;18.758;2023-09-08T08:50:36;8.00;;;5.50;;
37903;SDS011;23738;50.422;18.758;2023-09-08T08:53:09;9.90;;;5.30;;
37903;SDS011;23738;50.422;18.758;2023-09-08T08:55:40;9.80;;;5.30;;
37903;SDS011;23738;50.422;18.758;2023-09-08T08:58:10;7.40;;;4.90;;
37903;SDS011;23738;50.422;18.758;2023-09-08T09:00:40;9.90;;;5.10;;
37903;SDS011;23738;50.422;18.758;2023-09-08T09:03:12;8.80;;;5.50;;
37903;SDS011;23738;50.422;18.758;2023-09-08T09:05:42;5.20;;;4.70;;
37903;SDS011;23738;50.422;18.758;2023-09-08T09:08:12;7.90;;;5.20;;
37903;SDS011;23738;50.422;18.758;2023-09-08T09:10:42;5.40;;;4.80;;
37903;SDS011;23738;50.422;18.758;2023-09-08T09:13:11;7.70;;;4.60;;
37903;SDS011;23738;50.422;18.758;2023-09-08T09:15:41;6.80;;;4.60;;
37903;SDS011;23738;50.422;18.758;2023-09-08T09:18:12;11.00;;;5.50;;
37903;SDS011;23738;50.422;18.758;2023-09-08T09:20:42;9.80;;;5.40;;
37903;SDS011;23738;50.422;18.758;2023-09-08T09:23:29;5.90;;;4.80;;
37903;SDS011;23738;50.422;18.758;2023-09-08T09:25:59;7.40;;;4.40;;
37903;SDS011;23738;50.422;18.758;2023-09-08T09:28:31;8.30;;;4.50;;
37903;SDS011;23738;50.422;18.758;2023-09-08T09:31:00;5.90;;;5.30;;
37903;SDS011;23738;50.422;18.758;2023-09-08T09:33:30;8.60;;;5.40;;
37903;SDS011;23738;50.422;18.758;2023-09-08T09:35:59;8.30;;;5.40;;
37903;SDS011;23738;50.422;18.758;2023-09-08T09:38:29;6.20;;;4.90;;
37903;SDS011;23738;50.422;18.758;2023-09-08T09:41:02;6.30;;;5.00;;
37903;SDS011;23738;50.422;18.758;2023-09-08T09:43:32;6.20;;;4.80;;
37903;SDS011;23738;50.422;18.758;2023-09-08T09:46:01;6.40;;;4.90;;
37903;SDS011;23738;50.422;18.758;2023-09-08T09:48:31;6.70;;;5.20;;
37903;SDS011;23738;50.422;18.758;2023-09-08T09:51:00;8.10;;;5.00;;
37903;SDS011;23738;50.422;18.758;2023-09-08T09:53:45;8.20;;;4.80;;
37903;SDS011;23738;50.422;18.758;2023-09-08T09:56:15;5.10;;;4.50;;
37903;SDS011;23738;50.422;18.758;2023-09-08T09:58:45;5.60;;;4.70;;
37903;SDS011;23738;50.422;18.758;2023-09-08T10:01:17;8.10;;;4.70;;
37903;SDS011;23738;50.422;18.758;2023-09-08T10:03:47;8.60;;;5.00;;
37903;SDS011;23738;50.422;18.758;2023-09-08T10:06:17;6.60;;;4.50;;
37903;SDS011;23738;50.422;18.758;2023-09-08T10:08:49;7.40;;;4.70;;
37903;SDS011;23738;50.422;18.758;2023-09-08T10:11:21;6.90;;;3.80;;
37903;SDS011;23738;50.422;18.758;2023-09-08T10:13:53;5.40;;;4.50;;
37903;SDS011;23738;50.422;18.758;2023-09-08T10:16:26;6.70;;;4.10;;
37903;SDS011;23738;50.422;18.758;2023-09-08T10:18:56;6.20;;;4.40;;
37903;SDS011;23738;50.422;18.758;2023-09-08T10:21:28;6.50;;;4.00;;
37903;SDS011;23738;50.422;18.758;2023-09-08T10:24:03;5.80;;;4.70;;
37903;SDS011;23738;50.422;18.758;2023-09-08T10:26:39;5.60;;;4.30;;
37903;SDS011;23738;50.422;18.758;2023-09-08T10:29:11;5.70;;;4.10;;
37903;SDS011;23738;50.422;18.758;2023-09-08T10:31:41;11.40;;;4.60;;
37903;SDS011;23738;50.422;18.758;2023-09-08T10:34:11;7.00;;;4.30;;
37903;SDS011;23738;50.422;18.758;2023-09-08T10:36:42;9.40;;;4.10;;
37903;SDS011;23738;50.422;18.758;2023-09-08T10:42:24;5.00;;;4.30;;
37903;SDS011;23738;50.422;18.758;2023-09-08T10:45:01;5.80;;;3.80;;
37903;SDS011;23738;50.422;18.758;2023-09-08T10:47:54;5.50;;;4.10;;
37903;SDS011;23738;50.422;18.758;2023-09-08T10:50:29;6.80;;;3.90;;
37903;SDS011;23738;50.422;18.758;2023-09-08T10:53:10;6.80;;;4.10;;
37903;SDS011;23738;50.422;18.758;2023-09-08T10:55:43;6.00;;;4.10;;
37903;SDS011;23738;50.422;18.758;2023-09-08T11:01:15;5.70;;;4.00;;
37903;SDS011;23738;50.422;18.758;2023-09-08T11:03:46;4.30;;;3.90;;
37903;SDS011;23738;50.422;18.758;2023-09-08T11:06:17;5.20;;;3.90;;
37903;SDS011;23738;50.422;18.758;2023-09-08T11:08:49;4.40;;;3.80;;
37903;SDS011;23738;50.422;18.758;2023-09-08T11:11:22;5.90;;;3.80;;
37903;SDS011;23738;50.422;18.758;2023-09-08T11:13:51;5.90;;;4.10;;
37903;SDS011;23738;50.422;18.758;2023-09-08T11:16:21;7.50;;;3.80;;
37903;SDS011;23738;50.422;18.758;2023-09-08T11:18:55;5.90;;;4.00;;
37903;SDS011;23738;50.422;18.758;2023-09-08T11:21:25;5.30;;;3.50;;
37903;SDS011;23738;50.422;18.758;2023-09-08T11:24:00;4.90;;;3.50;;
37903;SDS011;23738;50.422;18.758;2023-09-08T11:26:30;7.90;;;4.10;;
37903;SDS011;23738;50.422;18.758;2023-09-08T11:29:02;6.80;;;4.10;;
37903;SDS011;23738;50.422;18.758;2023-09-08T11:31:33;11.50;;;4.50;;
37903;SDS011;23738;50.422;18.758;2023-09-08T11:34:03;5.30;;;4.30;;
37903;SDS011;23738;50.422;18.758;2023-09-08T11:36:34;5.20;;;3.70;;
37903;SDS011;23738;50.422;18.758;2023-09-08T11:39:05;4.30;;;3.70;;
37903;SDS011;23738;50.422;18.758;2023-09-08T11:41:35;4.60;;;4.00;;
37903;SDS011;23738;50.422;18.758;2023-09-08T11:44:05;8.40;;;3.80;;
37903;SDS011;23738;50.422;18.758;2023-09-08T11:46:34;4.80;;;3.60;;
37903;SDS011;23738;50.422;18.758;2023-09-08T11:49:05;6.10;;;3.10;;
37903;SDS011;23738;50.422;18.758;2023-09-08T11:51:34;4.30;;;3.60;;
37903;SDS011;23738;50.422;18.758;2023-09-08T11:54:04;6.10;;;3.80;;
37903;SDS011;23738;50.422;18.758;2023-09-08T11:56:34;4.70;;;3.60;;
37903;SDS011;23738;50.422;18.758;2023-09-08T11:59:03;6.20;;;4.00;;
37903;SDS011;23738;50.422;18.758;2023-09-08T12:01:33;5.20;;;4.00;;
37903;SDS011;23738;50.422;18.758;2023-09-08T12:04:03;5.20;;;4.10;;
37903;SDS011;23738;50.422;18.758;2023-09-08T12:06:32;9.40;;;4.20;;
37903;SDS011;23738;50.422;18.758;2023-09-08T12:09:02;4.80;;;3.80;;
37903;SDS011;23738;50.422;18.758;2023-09-08T12:11:35;4.60;;;4.20;;
37903;SDS011;23738;50.422;18.758;2023-09-08T12:14:08;4.60;;;3.10;;
37903;SDS011;23738;50.422;18.758;2023-09-08T12:16:38;4.90;;;4.00;;
37903;SDS011;23738;50.422;18.758;2023-09-08T12:19:09;4.80;;;3.60;;
37903;SDS011;23738;50.422;18.758;2023-09-08T12:21:59;5.70;;;4.00;;
37903;SDS011;23738;50.422;18.758;2023-09-08T12:24:49;4.60;;;3.40;;
37903;SDS011;23738;50.422;18.758;2023-09-08T12:27:25;6.20;;;4.00;;
37903;SDS011;23738;50.422;18.758;2023-09-08T12:29:58;6.20;;;3.90;;
37903;SDS011;23738;50.422;18.758;2023-09-08T12:32:30;5.00;;;3.90;;
37903;SDS011;23738;50.422;18.758;2023-09-08T12:35:00;7.90;;;3.60;;
37903;SDS011;23738;50.422;18.758;2023-09-08T12:37:32;4.40;;;3.90;;
37903;SDS011;23738;50.422;18.758;2023-09-08T12:40:03;5.10;;;4.00;;
37903;SDS011;23738;50.422;18.758;2023-09-08T12:42:34;5.20;;;3.80;;
37903;SDS011;23738;50.422;18.758;2023-09-08T12:45:04;4.00;;;3.60;;
37903;SDS011;23738;50.422;18.758;2023-09-08T12:47:35;6.40;;;3.60;;
37903;SDS011;23738;50.422;18.758;2023-09-08T12:50:05;3.80;;;3.50;;
37903;SDS011;23738;50.422;18.758;2023-09-08T12:52:36;5.10;;;3.80;;
37903;SDS011;23738;50.422;18.758;2023-09-08T12:55:05;8.20;;;3.60;;
37903;SDS011;23738;50.422;18.758;2023-09-08T12:57:36;3.90;;;3.40;;
37903;SDS011;23738;50.422;18.758;2023-09-08T13:00:06;5.70;;;4.00;;
37903;SDS011;23738;50.422;18.758;2023-09-08T13:02:36;9.00;;;4.10;;
37903;SDS011;23738;50.422;18.758;2023-09-08T13:05:07;8.80;;;3.80;;
37903;SDS011;23738;50.422;18.758;2023-09-08T13:07:36;4.00;;;3.30;;
37903;SDS011;23738;50.422;18.758;2023-09-08T13:10:07;7.70;;;3.20;;
37903;SDS011;23738;50.422;18.758;2023-09-08T13:12:36;4.90;;;3.20;;
37903;SDS011;23738;50.422;18.758;2023-09-08T13:15:07;5.50;;;2.90;;
37903;SDS011;23738;50.422;18.758;2023-09-08T13:17:37;3.20;;;2.80;;
37903;SDS011;23738;50.422;18.758;2023-09-08T13:20:07;3.90;;;3.20;;
37903;SDS011;23738;50.422;18.758;2023-09-08T13:22:38;4.20;;;3.50;;
37903;SDS011;23738;50.422;18.758;2023-09-08T13:25:08;8.70;;;3.30;;
37903;SDS011;23738;50.422;18.758;2023-09-08T13:27:39;6.30;;;3.80;;
37903;SDS011;23738;50.422;18.758;2023-09-08T13:30:10;4.80;;;3.30;;
37903;SDS011;23738;50.422;18.758;2023-09-08T13:32:41;4.80;;;3.50;;
37903;SDS011;23738;50.422;18.758;2023-09-08T13:35:11;3.80;;;3.20;;
37903;SDS011;23738;50.422;18.758;2023-09-08T13:37:41;8.30;;;3.70;;
37903;SDS011;23738;50.422;18.758;2023-09-08T13:40:10;7.30;;;3.70;;
37903;SDS011;23738;50.422;18.758;2023-09-08T13:42:40;4.80;;;3.20;;
37903;SDS011;23738;50.422;18.758;2023-09-08T13:45:11;6.00;;;3.40;;
37903;SDS011;23738;50.422;18.758;2023-09-08T13:47:40;3.40;;;3.10;;
37903;SDS011;23738;50.422;18.758;2023-09-08T13:50:10;3.80;;;3.10;;
37903;SDS011;23738;50.422;18.758;2023-09-08T13:52:39;3.30;;;2.70;;
37903;SDS011;23738;50.422;18.758;2023-09-08T13:55:10;3.50;;;3.20;;
37903;SDS011;23738;50.422;18.758;2023-09-08T13:57:39;4.30;;;3.30;;
37903;SDS011;23738;50.422;18.758;2023-09-08T14:00:10;3.70;;;3.10;;
37903;SDS011;23738;50.422;18.758;2023-09-08T14:02:40;7.30;;;3.70;;
37903;SDS011;23738;50.422;18.758;2023-09-08T14:05:10;4.10;;;3.70;;
37903;SDS011;23738;50.422;18.758;2023-09-08T14:07:39;5.50;;;3.10;;
37903;SDS011;23738;50.422;18.758;2023-09-08T14:10:09;5.50;;;3.80;;
37903;SDS011;23738;50.422;18.758;2023-09-08T14:12:38;3.80;;;3.40;;
37903;SDS011;23738;50.422;18.758;2023-09-08T14:15:08;4.20;;;3.60;;
37903;SDS011;23738;50.422;18.758;2023-09-08T14:17:41;3.70;;;3.30;;
37903;SDS011;23738;50.422;18.758;2023-09-08T14:20:12;5.00;;;3.40;;
37903;SDS011;23738;50.422;18.758;2023-09-08T14:22:41;8.70;;;3.60;;
37903;SDS011;23738;50.422;18.758;2023-09-08T14:25:10;4.30;;;3.50;;
37903;SDS011;23738;50.422;18.758;2023-09-08T14:27:40;4.30;;;3.40;;
37903;SDS011;23738;50.422;18.758;2023-09-08T14:30:09;5.00;;;3.20;;
37903;SDS011;23738;50.422;18.758;2023-09-08T14:32:39;5.60;;;3.20;;
37903;SDS011;23738;50.422;18.758;2023-09-08T14:35:09;5.00;;;3.00;;
37903;SDS011;23738;50.422;18.758;2023-09-08T14:37:39;7.80;;;3.20;;
37903;SDS011;23738;50.422;18.758;2023-09-08T14:40:09;4.10;;;3.20;;
37903;SDS011;23738;50.422;18.758;2023-09-08T14:42:39;5.40;;;3.10;;
37903;SDS011;23738;50.422;18.758;2023-09-08T14:45:10;7.70;;;3.60;;
37903;SDS011;23738;50.422;18.758;2023-09-08T14:47:39;6.90;;;3.10;;
37903;SDS011;23738;50.422;18.758;2023-09-08T14:50:09;6.30;;;3.30;;